Time;durP1;ratioP1;P1;durP2;ratioP2;P2;SDS_P1;SDS_P2;PMS_P1;PMS_P2;Temp;Humidity;BMP_temperature;BMP_pressure;BME280_temperature;BME280_humidity;BME280_pressure;Samples;Min_cycle;Max_cycle;Signal;HPM_P1;HPM_P2
2021/01/06 00:00:19;;;;;;;336.58;206.25;;;230.50;1664.00;;;;;;4976874;28;20155;-72
2021/01/06 00:02:44;;;;;;;365.83;231.32;;;230.60;1638.40;;;;;;4976631;28;20026;-71
2021/01/06 00:05:17;;;;;;;376.17;230.52;;;230.40;1664.00;;;;;;4976802;28;20389;-71
2021/01/06 00:07:43;;;;;;;373.42;241.02;;;230.60;1638.40;;;;;;4976659;28;20441;-70
2021/01/06 00:10:12;;;;;;;392.67;248.80;;;230.40;1664.00;;;;;;4976370;28;20023;-69
2021/01/06 00:12:40;;;;;;;410.38;259.38;;;205.50;1715.20;;;;;;4976368;28;20027;-70
2021/01/06 00:15:06;;;;;;;361.55;237.30;;;205.20;1740.80;;;;;;4955037;28;20093;-69
2021/01/06 00:17:32;;;;;;;361.98;224.25;;;205.30;1740.80;;;;;;4956187;28;20051;-70
2021/01/06 00:19:57;;;;;;;356.70;224.65;;;205.60;1715.20;;;;;;4956785;28;20055;-69
2021/01/06 00:22:23;;;;;;;364.35;224.02;;;205.50;1715.20;;;;;;4956487;28;20082;-69
2021/01/06 00:24:49;;;;;;;357.33;226.45;;;230.40;1664.00;;;;;;4956753;29;20475;-68
2021/01/06 00:27:14;;;;;;;339.17;208.82;;;230.40;1664.00;;;;;;4956927;29;20106;-69
2021/01/06 00:29:40;;;;;;;441.98;276.27;;;230.60;1638.40;;;;;;4957082;28;20098;-71
2021/01/06 00:32:06;;;;;;;375.27;231.07;;;230.40;1664.00;;;;;;4957035;28;20110;-69
2021/01/06 00:34:31;;;;;;;333.83;200.07;;;230.50;1664.00;;;;;;4956885;29;20035;-70
2021/01/06 00:36:57;;;;;;;310.00;190.32;;;230.50;1664.00;;;;;;4955159;28;20099;-68
2021/01/06 00:39:23;;;;;;;330.17;200.48;;;230.60;1638.40;;;;;;4954392;28;20023;-68
2021/01/06 00:41:48;;;;;;;319.27;194.77;;;230.40;1664.00;;;;;;4954457;28;20030;-68
2021/01/06 00:44:14;;;;;;;334.13;206.13;;;230.40;1638.40;;;;;;4953908;28;20040;-68
2021/01/06 00:46:40;;;;;;;347.13;209.68;;;205.70;1664.00;;;;;;4956584;28;20031;-68
2021/01/06 00:49:05;;;;;;;405.80;254.70;;;230.50;1664.00;;;;;;4956811;28;20426;-68
2021/01/06 00:51:32;;;;;;;374.35;222.70;;;205.20;1715.20;;;;;;4956343;28;20492;-69
2021/01/06 00:53:58;;;;;;;398.00;243.63;;;205.50;1689.60;;;;;;4956136;28;20086;-68
2021/01/06 00:56:28;;;;;;;346.48;212.73;;;205.30;1689.60;;;;;;4956424;28;20050;-69
2021/01/06 00:58:54;;;;;;;277.58;173.93;;;205.60;1664.00;;;;;;4956721;28;20158;-69
2021/01/06 01:01:21;;;;;;;234.23;144.63;;;205.60;1638.40;;;;;;4955042;29;20140;-69
2021/01/06 01:03:46;;;;;;;281.40;168.43;;;205.60;1638.40;;;;;;4956300;28;20067;-69
2021/01/06 01:06:12;;;;;;;213.57;133.68;;;205.60;1638.40;;;;;;4956357;28;20035;-69
2021/01/06 01:08:38;;;;;;;193.48;120.93;;;205.30;1664.00;;;;;;4956309;29;20035;-68
2021/01/06 01:11:03;;;;;;;190.48;122.53;;;205.30;1664.00;;;;;;4956228;28;20478;-69
2021/01/06 01:13:29;;;;;;;209.57;128.98;;;205.60;1638.40;;;;;;4955873;29;20050;-69
2021/01/06 01:15:57;;;;;;;207.43;131.23;;;205.70;1612.80;;;;;;4956367;29;20034;-68
2021/01/06 01:18:26;;;;;;;206.73;132.32;;;205.60;1638.40;;;;;;4956080;29;20031;-69
2021/01/06 01:20:57;;;;;;;213.52;136.93;;;205.70;1612.80;;;;;;4955873;29;20027;-69
2021/01/06 01:23:25;;;;;;;234.30;143.98;;;205.60;1638.40;;;;;;4955304;28;20105;-69
2021/01/06 01:25:52;;;;;;;224.90;136.27;;;205.70;1638.40;;;;;;4955848;28;20034;-69
2021/01/06 01:28:20;;;;;;;225.48;141.27;;;205.40;1638.40;;;;;;4955924;28;20026;-69
2021/01/06 01:30:47;;;;;;;215.63;131.77;;;205.00;1689.60;;;;;;4955913;28;20031;-68
2021/01/06 01:33:13;;;;;;;218.95;137.52;;;205.10;1664.00;;;;;;4955318;28;20035;-69
2021/01/06 01:35:39;;;;;;;187.25;114.57;;;205.30;1638.40;;;;;;4955769;28;20481;-68
2021/01/06 01:38:05;;;;;;;178.13;108.93;;;179.90;1740.80;;;;;;4954989;29;20038;-68
2021/01/06 01:40:32;;;;;;;189.00;113.57;;;205.00;1689.60;;;;;;4955768;28;20023;-69
2021/01/06 01:43:03;;;;;;;178.52;109.60;;;205.20;1664.00;;;;;;4955578;28;20035;-69
2021/01/06 01:45:59;;;;;;;181.00;111.38;;;205.20;1664.00;;;;;;4972877;28;20066;-71
2021/01/06 01:48:42;;;;;;;174.45;108.30;;;205.30;1664.00;;;;;;4974996;28;20027;-69
2021/01/06 01:51:30;;;;;;;184.80;110.63;;;205.00;1689.60;;;;;;4974759;28;20023;-69
2021/01/06 01:54:05;;;;;;;189.85;113.78;;;205.30;1664.00;;;;;;4974497;28;20142;-69
2021/01/06 01:57:02;;;;;;;195.55;122.40;;;205.20;1664.00;;;;;;4974704;28;20101;-69
2021/01/06 01:59:35;;;;;;;200.43;120.32;;;205.20;1664.00;;;;;;4953281;29;20044;-68
2021/01/06 02:02:09;;;;;;;251.05;147.13;;;205.40;1638.40;;;;;;4953231;29;20035;-69
2021/01/06 02:04:43;;;;;;;190.95;114.22;;;204.90;1689.60;;;;;;4953335;29;20457;-68
2021/01/06 02:07:16;;;;;;;185.45;111.75;;;204.80;1689.60;;;;;;4953276;29;20481;-69
2021/01/06 02:10:07;;;;;;;194.70;119.13;;;204.80;1715.20;;;;;;4953029;29;20530;-71
2021/01/06 02:12:38;;;;;;;200.70;125.78;;;204.90;1689.60;;;;;;4953171;29;20498;-69
2021/01/06 02:15:08;;;;;;;;;;;204.90;1689.60;;;;;;4953389;29;20031;-69
2021/01/06 02:17:34;;;;;;;189.38;117.68;;;205.10;1664.00;;;;;;4952976;29;19910;-71
2021/01/06 02:19:59;;;;;;;207.60;122.28;;;205.00;1689.60;;;;;;4953146;29;20082;-68
2021/01/06 02:22:25;;;;;;;194.05;117.63;;;204.90;1689.60;;;;;;4952673;29;20047;-69
2021/01/06 02:24:52;;;;;;;171.27;110.90;;;205.10;1664.00;;;;;;4953026;29;20031;-70
2021/01/06 02:27:19;;;;;;;200.23;122.55;;;205.10;1664.00;;;;;;4952911;29;20086;-69
2021/01/06 02:29:45;;;;;;;183.60;115.60;;;205.10;1664.00;;;;;;4952992;29;20035;-71
2021/01/06 02:32:11;;;;;;;214.38;129.70;;;205.30;1638.40;;;;;;4953055;29;20035;-69
2021/01/06 02:34:39;;;;;;;195.13;122.80;;;205.20;1638.40;;;;;;4952982;29;20121;-71
2021/01/06 02:37:07;;;;;;;201.65;125.75;;;205.10;1664.00;;;;;;4970305;28;20400;-72
2021/01/06 02:39:34;;;;;;;194.18;121.95;;;205.10;1664.00;;;;;;4974012;28;20019;-72
2021/01/06 02:42:00;;;;;;;195.88;122.57;;;204.90;1689.60;;;;;;4972973;28;20502;-71
2021/01/06 02:44:25;;;;;;;212.70;131.52;;;180.00;1715.20;;;;;;4975173;28;20109;-72
2021/01/06 02:46:53;;;;;;;198.70;125.85;;;204.80;1715.20;;;;;;4978182;28;20154;-72
2021/01/06 02:49:19;;;;;;;194.30;123.63;;;204.90;1689.60;;;;;;4978107;28;20035;-72
2021/01/06 02:52:11;;;;;;;192.88;121.43;;;204.90;1689.60;;;;;;4977878;28;20101;-72
2021/01/06 02:54:40;;;;;;;209.18;130.48;;;180.00;1715.20;;;;;;4978105;28;20045;-72
2021/01/06 02:57:07;;;;;;;185.88;117.60;;;179.70;1766.40;;;;;;4977890;28;20072;-71
2021/01/06 02:59:44;;;;;;;184.18;112.50;;;180.00;1740.80;;;;;;4977893;28;20027;-71
2021/01/06 03:02:13;;;;;;;159.38;100.22;;;204.90;1689.60;;;;;;4977993;28;20424;-70
2021/01/06 03:04:43;;;;;;;155.20;95.15;;;180.10;1689.60;;;;;;4977800;28;20022;-72
2021/01/06 03:07:11;;;;;;;131.95;81.30;;;180.10;1689.60;;;;;;4977273;28;20027;-72
2021/01/06 03:09:42;;;;;;;132.77;80.60;;;204.80;1689.60;;;;;;4977664;28;20103;-70
2021/01/06 03:12:18;;;;;;;132.70;78.75;;;180.10;1689.60;;;;;;4977580;28;20027;-69
2021/01/06 03:14:44;;;;;;;116.25;69.80;;;179.50;1766.40;;;;;;4977563;28;20038;-71
2021/01/06 03:17:15;;;;;;;120.40;72.97;;;179.90;1715.20;;;;;;4977531;28;20019;-71
2021/01/06 03:19:44;;;;;;;112.45;65.63;;;180.00;1689.60;;;;;;4977418;28;20054;-71
2021/01/06 03:22:14;;;;;;;118.20;67.78;;;180.10;1664.00;;;;;;4975814;28;20050;-72
2021/01/06 03:24:50;;;;;;;164.55;93.72;;;204.90;1664.00;;;;;;4977585;28;20051;-70
2021/01/06 03:27:17;;;;;;;150.13;85.57;;;180.10;1664.00;;;;;;4977325;28;20030;-70
2021/01/06 03:29:45;;;;;;;134.90;80.07;;;180.10;1689.60;;;;;;4977388;28;20086;-70
2021/01/06 03:32:21;;;;;;;166.02;96.68;;;204.80;1664.00;;;;;;4977219;28;20031;-71
2021/01/06 03:35:04;;;;;;;141.40;82.90;;;180.10;1664.00;;;;;;4977323;28;20059;-69
2021/01/06 03:37:36;;;;;;;128.73;72.57;;;179.70;1740.80;;;;;;4977072;28;20025;-69
2021/01/06 03:40:16;;;;;;;153.90;86.32;;;180.00;1689.60;;;;;;4977274;28;20066;-69
2021/01/06 03:42:43;;;;;;;166.05;94.70;;;204.80;1664.00;;;;;;4976956;28;20045;-69
2021/01/06 03:45:16;;;;;;;221.45;129.52;;;179.70;1715.20;;;;;;4969559;28;20027;-71
2021/01/06 03:47:45;;;;;;;164.73;99.10;;;179.50;1766.40;;;;;;4954649;28;20544;-70
2021/01/06 03:50:25;;;;;;;119.10;73.70;;;179.90;1715.20;;;;;;4956175;29;20035;-68
2021/01/06 03:53:03;;;;;;;121.97;74.75;;;180.00;1689.60;;;;;;4956087;29;20050;-69
2021/01/06 03:55:41;;;;;;;139.18;77.95;;;180.00;1689.60;;;;;;4957309;28;20027;-69
2021/01/06 03:58:34;;;;;;;136.85;83.13;;;180.00;1664.00;;;;;;4957533;28;20039;-68
2021/01/06 04:01:07;;;;;;;157.45;95.65;;;179.90;1689.60;;;;;;4957457;29;20030;-68
2021/01/06 04:03:50;;;;;;;219.40;119.47;;;179.80;1689.60;;;;;;4957379;28;20031;-67
2021/01/06 04:06:18;;;;;;;163.65;100.90;;;179.90;1715.20;;;;;;4955004;28;20026;-67
2021/01/06 04:08:54;;;;;;;182.80;107.35;;;179.90;1689.60;;;;;;4957409;28;20023;-68
2021/01/06 04:11:25;;;;;;;160.85;94.97;;;180.00;1664.00;;;;;;4957564;29;20046;-67
2021/01/06 04:13:51;;;;;;;152.17;96.50;;;180.10;1664.00;;;;;;4957435;28;20023;-68
2021/01/06 04:16:17;;;;;;;139.57;85.72;;;180.10;1664.00;;;;;;4957126;28;20253;-69
2021/01/06 04:18:44;;;;;;;152.95;93.03;;;179.90;1689.60;;;;;;4957207;28;20485;-70
2021/01/06 04:21:10;;;;;;;164.18;94.82;;;179.50;1740.80;;;;;;4952284;28;20019;-69
2021/01/06 04:23:36;;;;;;;143.20;83.00;;;179.80;1715.20;;;;;;4956545;28;20414;-69
2021/01/06 04:26:02;;;;;;;149.60;94.00;;;180.10;1689.60;;;;;;4957087;28;20023;-69
2021/01/06 04:28:32;;;;;;;166.80;105.60;;;180.10;1664.00;;;;;;4956898;28;20540;-69
2021/01/06 04:31:01;;;;;;;207.90;119.82;;;180.10;1689.60;;;;;;4956906;28;20386;-69
2021/01/06 04:33:39;;;;;;;187.75;121.82;;;204.80;1664.00;;;;;;4957008;28;20497;-69
2021/01/06 04:36:08;;;;;;;194.73;121.22;;;204.90;1664.00;;;;;;4956916;28;20031;-69
2021/01/06 04:38:44;;;;;;;199.10;123.50;;;180.00;1689.60;;;;;;4956752;28;20023;-71
2021/01/06 04:41:39;;;;;;;188.55;128.88;;;180.10;1689.60;;;;;;4956795;28;20113;-69
2021/01/06 04:44:28;;;;;;;207.50;132.25;;;204.80;1664.00;;;;;;4897423;29;20456;-69
2021/01/06 04:47:16;;;;;;;247.35;146.82;;;179.60;1740.80;;;;;;4897709;29;20131;-69
2021/01/06 04:49:57;;;;;;;505.67;278.88;;;179.70;1740.80;;;;;;4897329;29;20045;-69
2021/01/06 04:53:02;;;;;;;321.13;172.20;;;179.60;1740.80;;;;;;4897113;29;20464;-69
2021/01/06 04:55:51;;;;;;;279.73;176.40;;;179.80;1715.20;;;;;;4897602;29;20032;-68
2021/01/06 04:58:56;;;;;;;262.90;180.82;;;180.00;1689.60;;;;;;4897221;29;20065;-67
2021/01/06 05:01:40;;;;;;;237.40;154.82;;;204.80;1664.00;;;;;;4859766;29;20457;-68
2021/01/06 05:04:36;;;;;;;267.40;160.60;;;180.10;1689.60;;;;;;4859947;29;20106;-67
2021/01/06 05:07:26;;;;;;;482.33;250.25;;;179.70;1740.80;;;;;;4858916;29;20068;-69
2021/01/06 05:10:06;;;;;;;364.92;202.80;;;179.70;1740.80;;;;;;4863609;29;20388;-70
2021/01/06 05:12:42;;;;;;;388.27;207.90;;;180.00;1715.20;;;;;;4875330;29;20033;-71
2021/01/06 05:15:13;;;;;;;408.33;226.25;;;179.80;1715.20;;;;;;4855594;29;20095;-70
2021/01/06 05:17:41;;;;;;;341.70;202.52;;;180.00;1715.20;;;;;;4859796;29;20033;-70
2021/01/06 05:20:08;;;;;;;334.92;200.52;;;179.90;1715.20;;;;;;4863586;29;20195;-70
2021/01/06 05:22:34;;;;;;;309.17;182.77;;;180.00;1689.60;;;;;;4895029;29;20059;-71
2021/01/06 05:25:00;;;;;;;311.27;191.25;;;180.00;1689.60;;;;;;4896670;29;20389;-70
2021/01/06 05:27:36;;;;;;;312.05;191.25;;;180.10;1689.60;;;;;;4910854;29;20042;-70
2021/01/06 05:30:18;;;;;;;286.63;179.88;;;180.10;1689.60;;;;;;4912153;29;20402;-71
2021/01/06 05:32:44;;;;;;;288.05;178.30;;;180.00;1689.60;;;;;;4896767;29;20037;-70
2021/01/06 05:35:14;;;;;;;288.45;177.80;;;180.10;1689.60;;;;;;4932475;29;20043;-67
2021/01/06 05:37:42;;;;;;;286.30;177.88;;;179.90;1689.60;;;;;;4941507;28;20034;-68
2021/01/06 05:40:11;;;;;;;262.80;171.55;;;179.90;1689.60;;;;;;4974787;28;20062;-67
2021/01/06 05:42:58;;;;;;;317.63;207.77;;;179.90;1715.20;;;;;;4974785;28;20030;-68
2021/01/06 05:45:39;;;;;;;303.38;180.27;;;179.70;1740.80;;;;;;4974999;28;20050;-69
2021/01/06 05:48:17;;;;;;;307.02;190.15;;;179.60;1740.80;;;;;;4975023;28;20106;-70
2021/01/06 05:51:09;;;;;;;370.15;215.10;;;179.40;1766.40;;;;;;4964779;28;20031;-69
2021/01/06 05:53:44;;;;;;;373.30;217.25;;;154.40;1817.60;;;;;;4944861;29;20095;-69
2021/01/06 05:56:45;;;;;;;341.67;201.43;;;179.30;1792.00;;;;;;4953561;28;20482;-70
2021/01/06 05:59:24;;;;;;;322.60;183.68;;;179.70;1740.80;;;;;;4951818;28;20481;-68
2021/01/06 06:02:12;;;;;;;184.98;108.82;;;179.80;1740.80;;;;;;4955290;28;20117;-67
2021/01/06 06:04:57;;;;;;;114.20;69.32;;;180.00;1689.60;;;;;;4957827;28;20023;-69
2021/01/06 06:07:28;;;;;;;222.00;136.18;;;180.10;1664.00;;;;;;4964054;28;20358;-68
2021/01/06 06:10:04;;;;;;;253.57;154.48;;;204.80;1689.60;;;;;;4961587;28;20046;-67
2021/01/06 06:12:52;;;;;;;278.60;168.40;;;179.80;1715.20;;;;;;4965821;28;20492;-68
2021/01/06 06:15:38;;;;;;;280.95;177.10;;;179.60;1766.40;;;;;;4965972;28;20046;-66
2021/01/06 06:18:52;;;;;;;285.13;181.45;;;180.00;1715.20;;;;;;4964143;28;20428;-65
2021/01/06 06:21:20;;;;;;;311.50;197.00;;;180.10;1689.60;;;;;;4923853;29;20841;-65
2021/01/06 06:24:09;;;;;;;314.55;202.68;;;180.10;1689.60;;;;;;4923106;29;20129;-68
2021/01/06 06:26:53;;;;;;;373.23;232.65;;;204.90;1664.00;;;;;;4887020;29;20043;-66
2021/01/06 06:29:33;;;;;;;414.55;263.95;;;179.90;1689.60;;;;;;4870072;29;20036;-69
2021/01/06 06:32:00;;;;;;;415.63;264.17;;;179.80;1715.20;;;;;;4886287;29;20091;-69
2021/01/06 06:34:28;;;;;;;441.42;280.40;;;180.10;1689.60;;;;;;4888262;29;20032;-71
2021/01/06 06:37:23;;;;;;;443.40;296.20;;;180.10;1689.60;;;;;;4848472;29;20045;-69
2021/01/06 06:39:57;;;;;;;388.17;258.42;;;180.00;1689.60;;;;;;4876935;29;20037;-68
2021/01/06 06:42:29;;;;;;;398.10;262.52;;;179.90;1689.60;;;;;;4879892;29;20042;-66
2021/01/06 06:44:54;;;;;;;436.77;283.20;;;204.80;1664.00;;;;;;4885842;29;20037;-69
2021/01/06 06:47:25;;;;;;;397.27;257.88;;;179.80;1715.20;;;;;;4889688;29;20028;-67
2021/01/06 06:50:27;;;;;;;367.83;242.95;;;179.90;1715.20;;;;;;4887162;29;20029;-68
2021/01/06 06:53:00;;;;;;;;;;;204.80;1689.60;;;;;;4886620;29;20033;-69
2021/01/06 06:55:34;;;;;;;724.92;512.80;;;204.90;1689.60;;;;;;4880076;29;19925;-71
2021/01/06 06:58:20;;;;;;;317.67;207.27;;;204.90;1664.00;;;;;;4888246;29;20052;-69
2021/01/06 07:00:48;;;;;;;262.50;174.63;;;204.80;1689.60;;;;;;4895713;29;20082;-70
2021/01/06 07:03:22;;;;;;;188.23;130.23;;;204.90;1689.60;;;;;;4909636;29;20561;-70
2021/01/06 07:05:56;;;;;;;175.48;117.20;;;205.10;1664.00;;;;;;4938233;28;20023;-69
2021/01/06 07:08:30;;;;;;;145.00;93.50;;;205.20;1638.40;;;;;;4973798;28;20466;-70
2021/01/06 07:10:59;;;;;;;149.13;94.80;;;205.40;1612.80;;;;;;4973926;28;20023;-69
2021/01/06 07:13:25;;;;;;;189.15;123.07;;;205.40;1612.80;;;;;;4973913;28;20027;-68
2021/01/06 07:16:01;;;;;;;218.20;136.27;;;205.50;1612.80;;;;;;4942246;28;20034;-67
2021/01/06 07:18:36;;;;;;;227.25;145.45;;;205.50;1612.80;;;;;;4977603;28;20027;-68
2021/01/06 07:21:11;;;;;;;291.35;191.27;;;205.70;1587.20;;;;;;4959211;28;20030;-69
2021/01/06 07:23:45;;;;;;;321.23;217.80;;;230.40;1612.80;;;;;;4953933;28;20052;-69
2021/01/06 07:26:29;;;;;;;342.38;228.18;;;230.40;1587.20;;;;;;4954393;28;20121;-69
2021/01/06 07:29:00;;;;;;;385.65;257.10;;;230.40;1587.20;;;;;;4954283;28;20031;-67
2021/01/06 07:31:30;;;;;;;427.90;295.58;;;205.70;1612.80;;;;;;4960969;28;20440;-68
2021/01/06 07:34:00;;;;;;;335.10;237.32;;;205.50;1612.80;;;;;;4966023;28;20034;-70
2021/01/06 07:36:31;;;;;;;388.85;262.25;;;205.00;1689.60;;;;;;4969393;28;20057;-66
2021/01/06 07:38:57;;;;;;;382.15;260.35;;;205.00;1715.20;;;;;;4968131;28;20022;-68
2021/01/06 07:41:25;;;;;;;481.52;343.13;;;205.20;1715.20;;;;;;4966345;28;20113;-70
2021/01/06 07:44:17;;;;;;;448.85;309.65;;;205.70;1638.40;;;;;;4966437;28;20053;-70
2021/01/06 07:46:55;;;;;;;297.55;193.05;;;205.40;1664.00;;;;;;4955812;28;20520;-68
2021/01/06 07:49:30;;;;;;;301.05;183.82;;;204.80;1715.20;;;;;;4978037;28;20158;-68
2021/01/06 07:52:37;;;;;;;281.98;186.93;;;205.30;1689.60;;;;;;4969593;28;20582;-68
2021/01/06 07:55:19;;;;;;;253.00;167.25;;;205.60;1638.40;;;;;;4951665;29;20044;-68
2021/01/06 07:57:48;;;;;;;;;;;205.20;1689.60;;;;;;4957805;29;20031;-69
2021/01/06 08:00:17;;;;;;;325.90;187.10;;;205.20;1664.00;;;;;;4957425;29;19907;-68
2021/01/06 08:02:58;;;;;;;236.23;152.25;;;205.60;1638.40;;;;;;4957357;28;20028;-69
2021/01/06 08:05:27;;;;;;;233.27;151.52;;;230.60;1612.80;;;;;;4959818;28;20042;-69
2021/01/06 08:08:11;;;;;;;248.90;158.77;;;230.70;1561.60;;;;;;4957044;28;20070;-71
2021/01/06 08:10:40;;;;;;;269.40;171.63;;;230.90;1561.60;;;;;;4957577;28;20043;-70
2021/01/06 08:13:21;;;;;;;256.13;167.18;;;230.90;1561.60;;;;;;4957199;28;20059;-71
2021/01/06 08:15:49;;;;;;;260.37;166.87;;;230.60;1612.80;;;;;;4956747;28;20496;-72
2021/01/06 08:18:33;;;;;;;292.70;199.38;;;230.60;1612.80;;;;;;4957391;28;20016;-72
2021/01/06 08:21:07;;;;;;;318.77;205.27;;;205.70;1638.40;;;;;;4957010;28;20058;-71
2021/01/06 08:23:51;;;;;;;334.63;216.45;;;205.70;1664.00;;;;;;4956787;28;20126;-72
2021/01/06 08:26:26;;;;;;;480.95;315.15;;;230.70;1612.80;;;;;;4956934;28;20508;-71
2021/01/06 08:29:17;;;;;;;379.42;252.15;;;230.60;1638.40;;;;;;4956862;28;20027;-72
2021/01/06 08:31:44;;;;;;;366.42;249.00;;;230.40;1664.00;;;;;;4956865;28;20430;-70
2021/01/06 08:34:24;;;;;;;376.13;251.30;;;230.40;1664.00;;;;;;4956869;28;20035;-71
2021/01/06 08:37:10;;;;;;;334.73;215.32;;;231.00;1612.80;;;;;;4966151;28;20027;-71
2021/01/06 08:39:39;;;;;;;295.00;176.57;;;231.20;1561.60;;;;;;4975984;28;20034;-71
2021/01/06 08:42:16;;;;;;;235.00;150.55;;;231.30;1561.60;;;;;;4975921;28;20515;-70
2021/01/06 08:45:04;;;;;;;220.77;140.55;;;256.20;1536.00;;;;;;4975727;28;20046;-71
2021/01/06 08:47:34;;;;;;;205.27;127.50;;;230.90;1587.20;;;;;;4975776;28;20030;-69
2021/01/06 08:50:15;;;;;;;179.18;116.90;;;230.70;1638.40;;;;;;4975751;28;20035;-70
2021/01/06 08:52:42;;;;;;;176.10;118.75;;;231.10;1587.20;;;;;;4975878;28;20039;-71
2021/01/06 08:55:22;;;;;;;172.18;111.05;;;230.90;1612.80;;;;;;4975835;28;20026;-69
2021/01/06 08:58:05;;;;;;;178.45;118.63;;;230.80;1638.40;;;;;;4975637;28;20111;-68
2021/01/06 09:00:41;;;;;;;183.07;130.57;;;230.70;1638.40;;;;;;4975616;28;20023;-69
2021/01/06 09:03:06;;;;;;;206.88;134.02;;;230.70;1664.00;;;;;;4975856;28;20117;-70
2021/01/06 09:05:50;;;;;;;206.38;144.55;;;231.00;1612.80;;;;;;4975451;28;20047;-69
2021/01/06 09:08:20;;;;;;;184.15;126.25;;;231.30;1612.80;;;;;;4976136;28;20039;-69
2021/01/06 09:11:01;;;;;;;175.02;119.78;;;256.80;1510.40;;;;;;4975513;28;20046;-70
2021/01/06 09:13:36;;;;;;;172.32;117.38;;;282.30;1459.20;;;;;;4975334;28;20473;-70
2021/01/06 09:16:46;;;;;;;171.57;119.20;;;282.00;1484.80;;;;;;4975210;28;20081;-70
2021/01/06 09:19:36;;;;;;;204.05;130.95;;;281.80;1510.40;;;;;;4974998;28;20031;-70
2021/01/06 09:22:03;;;;;;;186.30;134.82;;;282.10;1484.80;;;;;;4975018;28;20098;-70
2021/01/06 09:24:35;;;;;;;199.00;139.88;;;282.00;1510.40;;;;;;4974762;28;20054;-70
2021/01/06 09:27:10;;;;;;;286.88;195.05;;;282.10;1484.80;;;;;;4974923;28;20033;-71
2021/01/06 09:29:38;;;;;;;280.08;194.32;;;281.70;1561.60;;;;;;4974816;28;20109;-71
2021/01/06 09:32:26;;;;;;;243.80;166.10;;;256.80;1561.60;;;;;;4975151;28;20037;-71
2021/01/06 09:35:01;;;;;;;188.23;126.25;;;256.60;1612.80;;;;;;4973795;28;20118;-71
2021/01/06 09:37:33;;;;;;;187.68;116.00;;;256.70;1587.20;;;;;;4974718;28;20073;-71
2021/01/06 09:40:10;;;;;;;177.93;116.68;;;256.70;1587.20;;;;;;4974773;28;20026;-69
2021/01/06 09:42:39;;;;;;;159.00;105.50;;;281.70;1587.20;;;;;;4974737;28;20029;-70
2021/01/06 09:45:07;;;;;;;155.20;107.20;;;282.00;1561.60;;;;;;4975005;28;20382;-70
2021/01/06 09:47:37;;;;;;;137.50;93.20;;;281.80;1587.20;;;;;;4974709;28;20026;-69
2021/01/06 09:50:16;;;;;;;114.50;78.75;;;281.60;1587.20;;;;;;4974360;28;20386;-69
2021/01/06 09:52:45;;;;;;;100.53;71.30;;;256.90;1561.60;;;;;;4974312;28;20114;-71
2021/01/06 09:55:17;;;;;;;139.85;87.60;;;256.80;1587.20;;;;;;4974360;28;20027;-69
2021/01/06 09:57:44;;;;;;;135.60;93.43;;;281.70;1612.80;;;;;;4973029;28;20026;-68
2021/01/06 10:00:44;;;;;;;118.25;82.43;;;281.70;1612.80;;;;;;4974561;28;20022;-71
2021/01/06 10:03:11;;;;;;;138.23;96.85;;;281.80;1587.20;;;;;;4974387;28;20090;-69
2021/01/06 10:05:41;;;;;;;112.60;76.40;;;281.60;1612.80;;;;;;4974521;28;20445;-70
2021/01/06 10:08:40;;;;;;;108.40;74.22;;;281.80;1587.20;;;;;;4973049;28;20074;-69
2021/01/06 10:11:38;;;;;;;113.25;78.70;;;281.80;1587.20;;;;;;4974295;28;20019;-70
2021/01/06 10:14:17;;;;;;;123.13;79.60;;;281.60;1587.20;;;;;;4952947;29;20062;-69
2021/01/06 10:16:53;;;;;;;91.47;61.80;;;256.90;1587.20;;;;;;4952679;29;20075;-70
2021/01/06 10:19:38;;;;;;;82.43;58.85;;;256.80;1587.20;;;;;;4953041;29;20074;-69
2021/01/06 10:22:36;;;;;;;87.78;59.63;;;256.50;1612.80;;;;;;4952851;29;20039;-69
2021/01/06 10:25:23;;;;;;;90.57;60.58;;;256.60;1638.40;;;;;;4952948;29;20052;-69
2021/01/06 10:28:00;;;;;;;97.95;65.20;;;256.90;1612.80;;;;;;4952639;29;20023;-68
2021/01/06 10:30:29;;;;;;;97.40;68.13;;;281.60;1612.80;;;;;;4952788;29;20055;-71
2021/01/06 10:33:13;;;;;;;91.63;63.35;;;256.80;1638.40;;;;;;4952824;29;20031;-70
2021/01/06 10:36:06;;;;;;;86.07;55.70;;;256.50;1612.80;;;;;;4952771;29;20041;-67
2021/01/06 10:38:44;;;;;;;74.53;52.05;;;256.80;1612.80;;;;;;4952276;29;20031;-70
2021/01/06 10:41:47;;;;;;;104.43;68.78;;;281.70;1664.00;;;;;;4952923;29;20516;-69
2021/01/06 10:44:31;;;;;;;128.32;82.75;;;282.00;1664.00;;;;;;4938869;29;20063;-69
2021/01/06 10:47:29;;;;;;;116.15;79.72;;;282.30;1638.40;;;;;;4936240;29;20085;-69
2021/01/06 10:50:00;;;;;;;154.25;102.57;;;282.10;1638.40;;;;;;4857740;29;20044;-69
2021/01/06 10:52:36;;;;;;;230.93;143.00;;;282.30;1664.00;;;;;;4808224;29;20054;-69
2021/01/06 10:55:07;;;;;;;121.30;81.00;;;282.30;1638.40;;;;;;4840091;29;20049;-68
2021/01/06 10:57:46;;;;;;;131.20;94.68;;;281.90;1638.40;;;;;;4840103;29;20401;-68
2021/01/06 11:00:26;;;;;;;69.97;47.10;;;281.70;1715.20;;;;;;4839813;29;20034;-68
2021/01/06 11:03:16;;;;;;;71.97;50.88;;;256.90;1664.00;;;;;;4839892;29;20477;-70
2021/01/06 11:06:17;;;;;;;88.20;59.53;;;281.70;1689.60;;;;;;4837001;29;20041;-70
2021/01/06 11:09:16;;;;;;;120.15;83.22;;;281.90;1689.60;;;;;;4861991;29;20026;-70
2021/01/06 11:11:48;;;;;;;134.93;93.25;;;281.90;1689.60;;;;;;4861522;29;20108;-70
2021/01/06 11:14:48;;;;;;;149.35;102.85;;;281.70;1740.80;;;;;;4861869;29;20187;-71
2021/01/06 11:17:16;;;;;;;154.95;109.72;;;256.90;1740.80;;;;;;4880352;29;20044;-70
2021/01/06 11:19:56;;;;;;;194.15;132.20;;;281.90;1766.40;;;;;;4880118;29;20083;-71
2021/01/06 11:22:43;;;;;;;521.28;354.88;;;281.90;1740.80;;;;;;4879357;29;20037;-69
2021/01/06 11:25:41;;;;;;;251.30;163.00;;;281.80;1766.40;;;;;;4880174;29;20038;-69
2021/01/06 11:28:22;;;;;;;140.10;100.15;;;281.70;1792.00;;;;;;4917718;28;20312;-68
2021/01/06 11:31:13;;;;;;;130.63;90.47;;;256.90;1817.60;;;;;;4917490;29;20079;-68
2021/01/06 11:33:40;;;;;;;178.80;117.97;;;256.80;1843.20;;;;;;4917754;29;20852;-69
2021/01/06 11:36:05;;;;;;;169.00;112.30;;;281.80;1843.20;;;;;;4920007;29;20036;-69
2021/01/06 11:38:39;;;;;;;167.10;114.18;;;281.90;1817.60;;;;;;4936586;29;20106;-69
2021/01/06 11:41:09;;;;;;;208.20;135.00;;;282.10;1792.00;;;;;;4936476;29;20160;-70
2021/01/06 11:43:34;;;;;;;172.18;114.90;;;282.20;1792.00;;;;;;4936259;29;20114;-68
2021/01/06 11:46:31;;;;;;;123.90;81.88;;;281.90;1843.20;;;;;;4936167;29;20115;-68
2021/01/06 11:49:13;;;;;;;141.65;97.50;;;256.90;1894.40;;;;;;4928969;29;20052;-68
2021/01/06 11:52:00;;;;;;;202.70;140.73;;;256.90;1894.40;;;;;;4936136;29;20032;-68
2021/01/06 11:54:29;;;;;;;374.85;259.67;;;281.90;1920.00;;;;;;4947596;29;20076;-69
2021/01/06 11:57:04;;;;;;;403.02;276.17;;;282.10;1894.40;;;;;;4957665;28;20023;-69
2021/01/06 11:59:52;;;;;;;154.57;108.82;;;282.00;1920.00;;;;;;4957494;28;20429;-69
2021/01/06 12:02:37;;;;;;;172.05;119.13;;;281.70;1920.00;;;;;;4957015;29;20046;-68
2021/01/06 12:05:23;;;;;;;234.15;166.90;;;282.00;1945.60;;;;;;4957168;28;20035;-69
2021/01/06 12:08:12;;;;;;;172.10;121.20;;;282.20;1920.00;;;;;;4957056;28;20347;-68
2021/01/06 12:10:56;;;;;;;153.82;107.78;;;282.20;1920.00;;;;;;4957211;28;20336;-68
2021/01/06 12:13:24;;;;;;;157.95;109.15;;;282.00;1920.00;;;;;;4957111;28;20020;-69
2021/01/06 12:16:13;;;;;;;146.95;105.07;;;282.40;1894.40;;;;;;4956751;28;20055;-69
2021/01/06 12:18:57;;;;;;;155.30;103.95;;;282.20;1894.40;;;;;;4957078;29;20027;-68
2021/01/06 12:21:44;;;;;;;137.07;96.97;;;307.20;1894.40;;;;;;4956701;28;20478;-69
2021/01/06 12:24:35;;;;;;;151.73;103.10;;;282.20;1920.00;;;;;;4956709;28;20059;-69
2021/01/06 12:27:03;;;;;;;;;;;282.30;1920.00;;;;;;4957120;29;20058;-69